• Join FlightAware (Why Join?)
  • Login
  • US Flag 
09:44PM EDT


 

Airport Tracker/Info


-or-


 

Live Flight TrackerFlight Track Log ✈ JZA7927 ✈ 15-May-2013 ✈ KBWI - CYYZ

Flight Track Log - Related Links

Times and Time Zones

All times are in EDT time to prevent confusion due to time zone crossing. See the JZA7927 flight status page for this flight to view local times or setup timezone preferences in your user account.

Time Position Orientation Groundspeed Altitude Reporting Facility
EDT Latitude Longitude Course Direction KTS MPH feet Rate Location/Type
06:16AM 39.2833 -76.7333 322° Northwest 157 181 3,900  Level Potomac TRACON
06:17AM 39.3167 -76.7500 339° North 136 157 5,400 1,260 Climbing Potomac TRACON
06:18AM 39.3167 -76.8000 270° West 141 162 6,400 1,080 Climbing Potomac TRACON
06:19AM 39.3333 -76.8500 293° West 145 167 7,700 1,140 Climbing Potomac TRACON
06:20AM 39.2000 -77.1219 270° West  Level FlightAware Approximate
06:20AM 39.3333 -76.9000 270° West 146 168 8,600  Level Potomac TRACON
06:21AM 39.2352 -77.1685 322° Northwest  Level FlightAware Approximate
06:21AM 39.3333 -76.9333 270° West 148 170 9,500  Level Potomac TRACON
06:23AM 39.3444 -77.0489 277° West 152 175 11,500 960 Climbing Washington Center
06:24AM 39.3478 -77.1025 275° West 152 175 12,500 1,080 Climbing Washington Center
06:25AM 39.3767 -77.1408 314° West 146 168 13,700 1,020 Climbing Washington Center
06:26AM 39.4094 -77.1736 322° Northwest 146 168 14,600 900 Climbing Washington Center
06:27AM 39.4383 -77.2067 319° Northwest 146 168 15,600 960 Climbing Washington Center
06:28AM 39.4669 -77.2447 314° West 151 174 16,500 840 Climbing Washington Center
06:29AM 39.5083 -77.2619 342° North 151 174 17,300 660 Climbing Washington Center
06:31AM 39.6039 -77.2894 347° North 161 185 18,700 540 Climbing New York Center
06:32AM 39.6553 -77.3050 347° North 161 185 19,000 120 Climbing New York Center
06:33AM 39.7044 -77.3175 349° North 185 213 19,000  Level New York Center
06:34AM 39.7683 -77.3344 348° North 201 231 19,000  Level New York Center
06:35AM 39.8194 -77.3500 347° North 207 238 19,000  Level New York Center
06:36AM 39.8831 -77.3694 347° North 207 238 19,000  Level New York Center
06:37AM 39.9386 -77.3828 350° North 213 245 19,000  Level New York Center
06:38AM 40.0022 -77.4025 347° North 218 251 19,000  Level New York Center
06:39AM 40.0556 -77.4156 349° North 218 251 19,000  Level New York Center
06:40AM 40.1189 -77.4406 343° North 218 251 19,000  Level New York Center
06:41AM 40.1697 -77.4619 342° North 218 251 19,000  Level New York Center
06:42AM 40.2328 -77.4897 341° North 218 251 19,000  Level New York Center
06:43AM 40.2836 -77.5108 342° North 218 251 19,000  Level New York Center
06:44AM 40.3467 -77.5389 341° North 218 251 19,000  Level New York Center
06:45AM 40.3978 -77.5575 345° North 218 251 19,000  Level New York Center
06:46AM 40.4608 -77.5856 341° North 212 244 19,000  Level New York Center
06:47AM 40.5097 -77.6067 342° North 212 244 19,000  Level New York Center
06:48AM 40.5708 -77.6319 343° North 207 238 19,000  Level New York Center
06:49AM 40.6197 -77.6506 344° North 202 232 19,000  Level New York Center
06:50AM 40.6828 -77.6786 341° North 202 232 19,000  Level New York Center
06:51AM 40.7397 -77.7008 344° North 202 232 19,000  Level New York Center
06:52AM 40.7967 -77.7258 342° North 202 232 19,000  Level New York Center
06:53AM 40.8478 -77.7447 344° North 202 232 19,000  Level New York Center
06:54AM 40.9025 -77.7697 341° North 207 238 19,000  Level New York Center
06:55AM 40.9572 -77.7944 341° North 202 232 19,000  Level New York Center
06:56AM 41.0122 -77.8167 343° North 202 232 19,000  Level New York Center
06:58AM 41.1525 -77.8778 342° North 205 236 19,000  Level Cleveland Center
06:59AM 41.2114 -77.8975 346° North 210 242 19,000  Level Cleveland Center
07:00AM 41.2661 -77.9228 341° North 210 242 19,000  Level Cleveland Center
07:01AM 41.3231 -77.9481 342° North 210 242 19,000  Level Cleveland Center
07:02AM 41.3800 -77.9708 343° North 210 242 19,000  Level Cleveland Center
07:03AM 41.4367 -77.9961 342° North 210 242 19,000  Level Cleveland Center
07:04AM 41.4936 -78.0217 341° North 210 242 19,000  Level Cleveland Center
07:05AM 41.5483 -78.0444 343° North 210 242 19,000  Level Cleveland Center
07:06AM 41.6053 -78.0672 343° North 210 242 19,000  Level Cleveland Center
07:07AM 41.6600 -78.0928 341° North 210 242 19,000  Level Cleveland Center
07:08AM 41.7167 -78.1156 343° North 210 242 19,000  Level Cleveland Center
07:09AM 41.7756 -78.1411 342° North 210 242 19,000  Level Cleveland Center
07:10AM 41.8325 -78.1669 341° North 210 242 19,000  Level Cleveland Center
07:11AM 41.8872 -78.1900 343° North 210 242 19,000  Level Cleveland Center
07:12AM 41.9419 -78.2131 343° North 210 242 19,000  Level Cleveland Center
07:13AM 41.9986 -78.2389 341° North 216 249 19,000  Level Cleveland Center
07:14AM 42.0556 -78.2647 341° North 216 249 19,000  Level Cleveland Center
07:15AM 42.1122 -78.2881 343° North 211 243 19,000  Level Cleveland Center
07:16AM 42.1794 -78.3164 343° North 218 251 19,000  Level Cleveland Center
07:17AM 42.2300 -78.3369 343° North 218 251 19,000  Level Cleveland Center
07:18AM 42.2867 -78.3658 339° North 218 251 19,000  Level Cleveland Center
07:19AM 42.3433 -78.3892 343° North 212 244 19,000  Level Cleveland Center
07:20AM 42.4003 -78.4125 343° North 212 244 19,000  Level Cleveland Center
07:21AM 42.4569 -78.4386 341° North 212 244 19,000  Level Cleveland Center
07:22AM 42.5117 -78.4622 342° North 212 244 19,000  Level Cleveland Center
07:23AM 42.5661 -78.4858 342° North 212 244 19,000 -120 Level Cleveland Center
07:24AM 42.6250 -78.5119 342° North 212 244 18,800 -600 Descending Cleveland Center
07:25AM 42.6839 -78.5383 342° North 212 244 17,800 -960 Descending Cleveland Center
07:26AM 42.7469 -78.5672 341° North 222 255 16,900 -960 Descending Cleveland Center
07:27AM 42.8119 -78.5936 343° North 233 268 15,900 -1,020 Descending Cleveland Center
07:28AM 42.8603 -78.6175 340° North 213 245 14,900 -960 Descending Cleveland Center
07:29AM 42.9044 -78.6358 343° North 181 208 14,000 -480 Descending Cleveland Center
07:30AM 42.9425 -78.6631 332° Northwest 166 191 14,000  Level Cleveland Center
07:31AM 42.9639 -78.7108 301° West 150 173 14,000  Level Cleveland Center
07:33AM 43.0167 -78.7833 315° West 150 173 14,000  Level Toronto Center